Aérodrome :
LOGIN :

S'inscrire | Disclaimer

   EN    FR    IT 

 










Légende :    VFR   VFR Marginal   IFR   IFR Intensif   IFR Très Intensif
Visi : 
Plafond : 
>= 8 km
>= 3000ft
5 à 8 km
1000 à 3000 ft
1500m à 5 km
500 à 1000 ft
800 à 1500m
200 à 500 ft
< 800m
< 200 ft
Symboles :   Orages  Brouillard  Fortes neiges  Fortes précipitations  Vent > 20 kt
SIGMETs :   Divers  Orages  Givrage  Turbulence  Onde Orograph.  Cendres Volcan.






- Altitude de l'aérodrome : 218 ft
- Code IATA : LBG


LFPB - Paris / Le Bourget

DERNIER METAR :
  • 172130Z AUTO 23012KT CAVOK 07/03 Q1023 TEMPO 24015G25KT

METARs EXPIRÉS :
  • 172100Z AUTO 23013KT CAVOK 07/03 Q1023 TEMPO 24015G25KT
  • 172030Z AUTO 24014KT 210V270 CAVOK 07/03 Q1023 TEMPO 24015G25KT
  • 172000Z AUTO 24016KT 9999 SCT045 BKN100 BKN140 08/03 Q1022 TEMPO 24015G25KT
  • 171930Z AUTO 23014KT CAVOK 08/03 Q1022 TEMPO 24015G25KT
  • 171900Z AUTO 22011KT CAVOK 08/03 Q1022 TEMPO 24015G25KT

TAF TAF LFPB
Valide du 17 à 18h jusqu'au 18 à 18h UTC


171700Z 1718/1818 23015KT 9999 SCT030 SCT040
TEMPO 1718/1724 24015G25KT
PROB30
TEMPO 1718/1719 4000 SHRA SCT015TCU
TEMPO 1812/1818 25015G25KT
PROB40
TEMPO 1812/1818 SCT030TCU
ATIS : +33 1 48 62 43 92



MET'MAP, la Météo Aéronautique d'un coup d'oeil ! - Copyright ORBIFLY Décembre 2007 - Disclaimer

ORBIFLY MET'MAP TEAM :

Programmation & Développement : Alexandra Zaïnal
Sur une idée originale de : Baudouin d'Aumeries
Assistance à la programmation : Marc-Olivier Méhu
Soutien technique & logistique : Manuel Goepfert

Contact : metmap@orbifly.com




SOURCES & CREDITS :

   NOAA